createdAt,value
2018-12-16T00:00:08.963Z,20.57
2018-12-16T00:02:37.477Z,19.30
2018-12-16T00:05:06.019Z,20.57
2018-12-16T00:07:34.421Z,20.13
2018-12-16T00:10:02.871Z,20.47
2018-12-16T00:12:31.289Z,20.77
2018-12-16T00:15:00.056Z,19.83
2018-12-16T00:17:29.171Z,20.60
2018-12-16T00:19:57.577Z,20.53
2018-12-16T00:22:29.854Z,21.63
2018-12-16T00:24:56.914Z,20.03
2018-12-16T00:27:25.336Z,20.40
2018-12-16T00:29:53.903Z,22.20
2018-12-16T00:32:22.394Z,19.47
2018-12-16T00:34:50.812Z,20.30
2018-12-16T00:37:19.198Z,20.83
2018-12-16T00:39:47.626Z,20.07
2018-12-16T00:42:16.136Z,20.97
2018-12-16T00:44:44.514Z,20.37
2018-12-16T00:47:12.958Z,21.90
2018-12-16T00:49:41.424Z,21.73
2018-12-16T00:52:09.924Z,20.97
2018-12-16T00:54:38.654Z,19.90
2018-12-16T00:57:07.196Z,21.37
2018-12-16T00:59:35.686Z,20.47
2018-12-16T01:02:05.931Z,20.57
2018-12-16T01:04:34.377Z,19.77
2018-12-16T01:07:02.830Z,21.20
2018-12-16T01:09:31.283Z,21.67
2018-12-16T01:11:59.724Z,21.90
2018-12-16T01:14:28.117Z,21.67
2018-12-16T01:16:56.513Z,20.80
2018-12-16T01:19:24.960Z,21.70
2018-12-16T01:21:53.356Z,22.30
2018-12-16T01:24:21.827Z,20.93
2018-12-16T01:26:50.223Z,20.47
2018-12-16T01:29:18.677Z,21.43
2018-12-16T01:31:47.174Z,21.40
2018-12-16T01:34:19.219Z,22.00
2018-12-16T01:36:47.621Z,21.67
2018-12-16T01:39:16.022Z,20.83
2018-12-16T01:41:44.572Z,21.07
2018-12-16T01:44:12.976Z,21.37
2018-12-16T01:46:41.373Z,21.10
2018-12-16T01:49:09.890Z,22.10
2018-12-16T01:51:38.279Z,22.07
2018-12-16T01:54:06.663Z,21.90
2018-12-16T01:56:35.892Z,21.10
2018-12-16T01:59:04.343Z,21.73
2018-12-16T02:01:33.239Z,22.00
2018-12-16T02:04:01.712Z,20.93
2018-12-16T02:06:30.103Z,19.43
2018-12-16T02:08:58.496Z,26.93
2018-12-16T02:11:26.900Z,22.00
2018-12-16T02:13:55.267Z,20.33
2018-12-16T02:16:23.680Z,21.50
2018-12-16T02:18:52.179Z,21.27
2018-12-16T02:21:20.704Z,20.30
2018-12-16T02:23:49.083Z,21.53
2018-12-16T02:26:17.474Z,21.03
2018-12-16T02:28:45.905Z,21.67
2018-12-16T02:31:14.297Z,22.07
2018-12-16T02:33:42.708Z,20.37
2018-12-16T02:36:11.137Z,20.30
2018-12-16T02:38:39.517Z,21.03
2018-12-16T02:41:08.015Z,20.07
2018-12-16T02:43:36.489Z,20.80
2018-12-16T02:46:05.208Z,20.67
2018-12-16T02:48:33.674Z,20.23
2018-12-16T02:51:02.110Z,22.13
2018-12-16T02:53:30.762Z,20.67
2018-12-16T02:55:59.161Z,20.43
2018-12-16T02:58:27.577Z,21.53
2018-12-16T03:00:56.162Z,21.50
2018-12-16T03:03:24.583Z,21.87
2018-12-16T03:05:53.023Z,20.13
2018-12-16T03:08:21.414Z,22.17
2018-12-16T03:10:49.813Z,21.40
2018-12-16T03:13:18.281Z,21.27
2018-12-16T03:15:46.738Z,21.90
2018-12-16T03:18:15.197Z,20.83
2018-12-16T03:20:43.576Z,21.87
2018-12-16T03:23:12.677Z,22.53
2018-12-16T03:25:41.349Z,20.60
2018-12-16T03:28:09.977Z,20.80
2018-12-16T03:30:38.380Z,21.10
2018-12-16T03:33:06.786Z,20.23
2018-12-16T03:35:35.177Z,21.03
2018-12-16T03:38:03.680Z,21.67
2018-12-16T03:40:32.075Z,21.80
2018-12-16T03:43:00.511Z,22.07
2018-12-16T03:45:28.905Z,21.73
2018-12-16T03:47:57.315Z,21.13
2018-12-16T03:50:25.705Z,20.60
2018-12-16T03:52:54.109Z,19.97
2018-12-16T03:55:22.509Z,20.13
2018-12-16T03:57:50.931Z,20.70
2018-12-16T04:00:19.331Z,21.30
2018-12-16T04:02:47.735Z,19.43
2018-12-16T04:05:16.147Z,20.63
2018-12-16T04:07:44.544Z,20.37
2018-12-16T04:10:12.948Z,20.67
2018-12-16T04:12:41.352Z,20.13
2018-12-16T04:15:09.891Z,20.17
2018-12-16T04:17:38.381Z,20.40
2018-12-16T04:20:06.838Z,20.40
2018-12-16T04:22:35.237Z,19.40
2018-12-16T04:25:03.890Z,20.13
2018-12-16T04:27:32.390Z,18.77
2018-12-16T04:30:00.875Z,18.67
2018-12-16T04:32:29.263Z,19.07
2018-12-16T04:34:57.662Z,18.50
2018-12-16T04:37:26.075Z,19.10
2018-12-16T04:39:54.485Z,17.87
2018-12-16T04:42:22.884Z,17.83
2018-12-16T04:44:51.286Z,16.23
2018-12-16T04:47:20.546Z,16.93
2018-12-16T04:49:48.952Z,17.13
2018-12-16T04:52:17.417Z,16.63
2018-12-16T04:54:45.880Z,16.40
2018-12-16T04:57:14.395Z,17.10
2018-12-16T04:59:42.804Z,15.30
2018-12-16T05:02:11.202Z,13.57
2018-12-16T05:04:39.608Z,13.23
2018-12-16T05:07:08.087Z,13.87
2018-12-16T05:09:36.564Z,14.37
2018-12-16T05:12:04.960Z,14.40
2018-12-16T05:14:33.358Z,14.60
2018-12-16T05:17:01.790Z,15.37
2018-12-16T05:19:30.189Z,15.23
2018-12-16T05:21:58.609Z,15.63
2018-12-16T05:24:27.047Z,15.20
2018-12-16T05:26:55.450Z,15.33
2018-12-16T05:29:23.909Z,16.17
2018-12-16T05:31:52.378Z,15.90
2018-12-16T05:34:21.689Z,15.10
2018-12-16T05:36:50.109Z,14.33
2018-12-16T05:39:18.502Z,14.20
2018-12-16T05:41:47.327Z,13.17
2018-12-16T05:44:15.726Z,13.30
2018-12-16T05:46:44.134Z,12.13
2018-12-16T05:49:12.536Z,12.43
2018-12-16T05:51:40.953Z,13.17
2018-12-16T05:54:09.423Z,12.60
2018-12-16T05:56:37.907Z,12.83
2018-12-16T05:59:06.355Z,12.83
2018-12-16T06:01:34.763Z,12.20
2018-12-16T06:04:03.161Z,12.70
2018-12-16T06:06:31.620Z,12.00
2018-12-16T06:09:00.021Z,11.70
2018-12-16T06:11:28.419Z,12.13
2018-12-16T06:13:56.805Z,10.97
2018-12-16T06:16:25.269Z,11.20
2018-12-16T06:18:53.721Z,11.53
2018-12-16T06:21:22.118Z,11.87
2018-12-16T06:23:55.617Z,11.23
2018-12-16T06:26:21.106Z,11.93
2018-12-16T06:28:49.498Z,11.47
2018-12-16T06:31:17.885Z,12.30
2018-12-16T06:33:46.298Z,11.50
2018-12-16T06:36:14.734Z,11.97
2018-12-16T06:38:43.241Z,12.07
2018-12-16T06:41:11.634Z,11.33
2018-12-16T06:43:40.034Z,12.23
2018-12-16T06:46:08.446Z,12.27
2018-12-16T06:48:36.840Z,12.53
2018-12-16T06:51:05.312Z,11.53
2018-12-16T06:53:33.719Z,12.33
2018-12-16T06:56:06.638Z,10.90
2018-12-16T06:58:32.554Z,11.73
2018-12-16T07:01:00.948Z,12.43
2018-12-16T07:03:29.364Z,12.33
2018-12-16T07:05:57.830Z,11.80
2018-12-16T07:08:26.322Z,12.03
2018-12-16T07:10:54.834Z,12.27
2018-12-16T07:13:23.216Z,12.47
2018-12-16T07:15:51.963Z,12.70
2018-12-16T07:18:20.385Z,12.20
2018-12-16T07:20:48.801Z,12.37
2018-12-16T07:23:17.520Z,11.87
2018-12-16T07:25:46.197Z,12.23
2018-12-16T07:28:14.608Z,12.17
2018-12-16T07:30:43.272Z,11.77
2018-12-16T07:33:11.752Z,11.60
2018-12-16T07:35:41.561Z,12.50
2018-12-16T07:38:09.960Z,12.67
2018-12-16T07:40:38.638Z,11.67
2018-12-16T07:43:07.304Z,13.27
2018-12-16T07:45:35.885Z,12.37
2018-12-16T07:48:04.383Z,13.20
2018-12-16T07:50:33.050Z,13.40
2018-12-16T07:53:01.516Z,12.70
2018-12-16T07:55:30.048Z,12.87
2018-12-16T07:57:58.704Z,13.47
2018-12-16T08:00:27.106Z,13.23
2018-12-16T08:02:55.579Z,12.53
2018-12-16T08:05:24.261Z,13.57
2018-12-16T08:07:52.754Z,13.60
2018-12-16T08:10:21.222Z,13.50
2018-12-16T08:12:49.633Z,14.20
2018-12-16T08:15:18.021Z,13.10
2018-12-16T08:17:46.437Z,13.83
2018-12-16T08:20:14.823Z,13.13
2018-12-16T08:22:43.321Z,13.73
2018-12-16T08:25:11.805Z,14.27
2018-12-16T08:27:40.214Z,13.70
2018-12-16T08:30:08.767Z,13.93
2018-12-16T08:32:37.241Z,13.37
2018-12-16T08:35:05.923Z,13.80
2018-12-16T08:37:34.430Z,13.30
2018-12-16T08:40:02.823Z,14.20
2018-12-16T08:42:31.265Z,13.60
2018-12-16T08:44:59.655Z,14.40
2018-12-16T08:47:33.073Z,13.80
2018-12-16T08:49:58.670Z,14.37
2018-12-16T08:52:27.122Z,13.40
2018-12-16T08:54:55.532Z,14.27
2018-12-16T08:57:23.986Z,13.40
2018-12-16T08:59:52.482Z,14.53
2018-12-16T09:02:20.954Z,13.63
2018-12-16T09:04:49.356Z,13.47
2018-12-16T09:07:17.756Z,13.97
2018-12-16T09:09:46.210Z,13.70
2018-12-16T09:12:14.666Z,12.83
2018-12-16T09:14:43.166Z,14.10
2018-12-16T09:17:11.640Z,13.80
2018-12-16T09:19:40.122Z,14.03
2018-12-16T09:22:08.523Z,14.27
2018-12-16T09:24:37.501Z,12.83
2018-12-16T09:27:06.389Z,12.40
2018-12-16T09:29:34.892Z,13.30
2018-12-16T09:32:03.284Z,13.53
2018-12-16T09:34:31.734Z,14.07
2018-12-16T09:37:00.126Z,13.77
2018-12-16T09:39:28.533Z,13.63
2018-12-16T09:41:56.957Z,13.17
2018-12-16T09:44:25.535Z,13.40
2018-12-16T09:46:54.132Z,13.97
2018-12-16T09:49:22.629Z,13.50
2018-12-16T09:51:51.043Z,13.93
2018-12-16T09:54:19.448Z,13.00
2018-12-16T09:56:47.954Z,13.67
2018-12-16T09:59:16.432Z,13.47
2018-12-16T10:01:44.937Z,14.23
2018-12-16T10:04:13.387Z,12.93
2018-12-16T10:06:41.795Z,13.40
2018-12-16T10:09:10.253Z,13.47
2018-12-16T10:11:38.702Z,13.77
2018-12-16T10:14:07.121Z,13.90
2018-12-16T10:16:35.507Z,13.57
2018-12-16T10:19:03.999Z,12.90
2018-12-16T10:21:32.391Z,14.00
2018-12-16T10:24:00.811Z,14.43
2018-12-16T10:26:29.266Z,13.77
2018-12-16T10:28:57.658Z,14.07
2018-12-16T10:31:26.159Z,15.07
2018-12-16T10:33:54.732Z,14.90
2018-12-16T10:36:23.229Z,14.73
2018-12-16T10:38:51.712Z,15.47
2018-12-16T10:41:20.186Z,15.13
2018-12-16T10:43:48.674Z,14.63
2018-12-16T10:46:17.098Z,14.30
2018-12-16T10:48:45.528Z,14.47
2018-12-16T10:51:14.011Z,14.23
2018-12-16T10:53:42.408Z,14.23
2018-12-16T10:56:10.868Z,14.53
2018-12-16T10:58:39.284Z,14.57
2018-12-16T11:01:13.146Z,14.57
2018-12-16T11:03:41.640Z,13.67
2018-12-16T11:06:10.741Z,14.50
2018-12-16T11:08:39.845Z,15.20
2018-12-16T11:11:10.037Z,14.50
2018-12-16T11:13:38.427Z,14.47
2018-12-16T11:16:06.933Z,14.50
2018-12-16T11:18:35.843Z,13.83
2018-12-16T11:21:04.267Z,14.70
2018-12-16T11:23:33.177Z,13.80
2018-12-16T11:26:01.715Z,14.57
2018-12-16T11:28:30.131Z,13.87
2018-12-16T11:30:58.531Z,13.93
2018-12-16T11:33:26.940Z,13.53
2018-12-16T11:35:55.412Z,13.47
2018-12-16T11:38:23.817Z,12.87
2018-12-16T11:40:52.227Z,13.73
2018-12-16T11:43:20.626Z,13.67
2018-12-16T11:45:49.049Z,14.40
2018-12-16T11:48:17.456Z,13.00
2018-12-16T11:50:45.869Z,13.47
2018-12-16T11:53:14.295Z,12.73
2018-12-16T11:55:42.766Z,13.37
2018-12-16T11:58:12.165Z,12.40
2018-12-16T12:00:40.596Z,12.30
2018-12-16T12:03:09.005Z,12.50
2018-12-16T12:05:37.412Z,13.50
2018-12-16T12:08:05.962Z,13.63
2018-12-16T12:10:34.354Z,13.53
2018-12-16T12:13:02.774Z,12.37
2018-12-16T12:15:31.174Z,12.57
2018-12-16T12:17:59.658Z,12.13
2018-12-16T12:20:28.064Z,13.43
2018-12-16T12:22:56.526Z,12.83
2018-12-16T12:25:24.922Z,12.73
2018-12-16T12:27:53.395Z,12.53
2018-12-16T12:30:21.792Z,13.00
2018-12-16T12:32:50.201Z,12.63
2018-12-16T12:35:18.605Z,12.43
2018-12-16T12:37:47.169Z,12.93
2018-12-16T12:40:15.585Z,12.87
2018-12-16T12:42:44.000Z,12.20
2018-12-16T12:45:12.578Z,12.73
2018-12-16T12:47:41.034Z,12.33
2018-12-16T12:50:09.441Z,11.27
2018-12-16T12:52:37.899Z,13.00
2018-12-16T12:55:06.629Z,12.10
2018-12-16T12:57:35.960Z,12.70
2018-12-16T13:00:06.875Z,13.17
2018-12-16T13:02:35.308Z,12.27
2018-12-16T13:05:03.765Z,12.83
2018-12-16T13:07:32.179Z,12.07
2018-12-16T13:10:00.661Z,12.27
2018-12-16T13:12:29.439Z,13.03
2018-12-16T13:14:57.979Z,12.90
2018-12-16T13:17:26.443Z,12.33
2018-12-16T13:19:54.910Z,11.70
2018-12-16T13:22:23.381Z,12.47
2018-12-16T13:27:59.244Z,12.20
2018-12-16T13:30:27.740Z,12.97
2018-12-16T13:32:56.312Z,13.13
2018-12-16T13:35:24.992Z,12.40
2018-12-16T13:37:54.298Z,11.90
2018-12-16T13:40:22.792Z,12.60
2018-12-16T13:42:51.466Z,12.03
2018-12-16T13:45:20.064Z,13.63
2018-12-16T13:47:48.588Z,12.27
2018-12-16T13:50:17.083Z,12.80
2018-12-16T13:52:45.697Z,13.03
2018-12-16T13:55:14.131Z,12.97
2018-12-16T13:57:44.444Z,12.97
2018-12-16T14:00:13.286Z,12.40
2018-12-16T14:02:41.712Z,11.63
2018-12-16T14:05:10.232Z,12.53
2018-12-16T14:07:38.631Z,12.23
2018-12-16T14:10:07.672Z,13.97
2018-12-16T14:12:36.091Z,14.07
2018-12-16T14:15:05.015Z,12.47
2018-12-16T14:17:33.419Z,12.47
2018-12-16T14:20:01.849Z,12.43
2018-12-16T14:22:30.500Z,12.67
2018-12-16T14:24:58.919Z,13.17
2018-12-16T14:27:27.313Z,13.70
2018-12-16T14:29:55.779Z,13.87
2018-12-16T14:32:24.208Z,14.17
2018-12-16T14:34:52.727Z,13.70
2018-12-16T14:37:21.174Z,13.23
2018-12-16T14:39:49.670Z,12.93
2018-12-16T14:42:18.075Z,14.40
2018-12-16T14:44:46.479Z,13.17
2018-12-16T14:47:14.897Z,12.70
2018-12-16T14:49:43.319Z,13.33
2018-12-16T14:52:12.133Z,13.57
2018-12-16T14:54:41.245Z,13.17
2018-12-16T14:57:09.903Z,13.10
2018-12-16T14:59:38.317Z,14.13
2018-12-16T15:02:06.848Z,14.70
2018-12-16T15:04:35.303Z,14.20
2018-12-16T15:07:03.725Z,15.87
2018-12-16T15:09:32.148Z,14.80
2018-12-16T15:12:00.675Z,14.87
2018-12-16T15:14:29.114Z,14.33
2018-12-16T15:16:57.583Z,13.50
2018-12-16T15:19:26.067Z,15.20
2018-12-16T15:21:54.468Z,13.90
2018-12-16T15:24:22.873Z,16.00
2018-12-16T15:26:52.689Z,14.27
2018-12-16T15:29:22.429Z,14.87
2018-12-16T15:31:50.847Z,15.47
2018-12-16T15:34:19.247Z,14.67
2018-12-16T15:36:47.719Z,14.93
2018-12-16T15:39:16.142Z,14.87
2018-12-16T15:41:44.584Z,14.33
2018-12-16T15:44:12.991Z,17.73
2018-12-16T15:46:41.401Z,14.67
2018-12-16T15:49:09.813Z,14.73
2018-12-16T15:51:38.294Z,19.03
2018-12-16T15:54:06.752Z,15.63
2018-12-16T15:56:35.472Z,18.10
2018-12-16T15:59:03.881Z,17.50
2018-12-16T16:01:32.719Z,13.73
2018-12-16T16:04:01.642Z,13.83
2018-12-16T16:06:30.198Z,15.07
2018-12-16T16:08:58.769Z,15.73
2018-12-16T16:11:27.394Z,15.43
2018-12-16T16:13:55.784Z,15.30
2018-12-16T16:16:24.235Z,15.07
2018-12-16T16:18:52.662Z,13.77
2018-12-16T16:21:21.243Z,16.00
2018-12-16T16:23:49.696Z,13.83
2018-12-16T16:26:18.187Z,13.33
2018-12-16T16:28:46.636Z,15.10
2018-12-16T16:31:15.048Z,15.57
2018-12-16T16:33:43.481Z,13.80
2018-12-16T16:36:11.978Z,14.47
2018-12-16T16:38:40.380Z,14.80
2018-12-16T16:41:09.041Z,14.77
2018-12-16T16:43:37.441Z,14.53
2018-12-16T16:46:05.907Z,13.90
2018-12-16T16:48:34.325Z,13.37
2018-12-16T16:51:02.767Z,13.33
2018-12-16T16:53:31.167Z,13.60
2018-12-16T16:55:59.630Z,12.87
2018-12-16T16:58:28.031Z,13.63
2018-12-16T17:00:56.461Z,14.10
2018-12-16T17:03:24.909Z,13.27
2018-12-16T17:05:53.323Z,14.30
2018-12-16T17:08:21.805Z,14.10
2018-12-16T17:10:50.305Z,14.87
2018-12-16T17:13:18.703Z,13.70
2018-12-16T17:15:47.095Z,13.73
2018-12-16T17:18:15.541Z,14.67
2018-12-16T17:20:44.059Z,14.23
2018-12-16T17:23:12.465Z,14.90
2018-12-16T17:25:40.877Z,14.67
2018-12-16T17:28:09.306Z,15.10
2018-12-16T17:30:37.753Z,15.10
2018-12-16T17:33:06.263Z,14.40
2018-12-16T17:35:34.709Z,15.13
2018-12-16T17:38:03.170Z,14.33
2018-12-16T17:40:31.571Z,15.40
2018-12-16T17:43:00.041Z,14.67
2018-12-16T17:45:28.453Z,14.93
2018-12-16T17:47:56.864Z,15.63
2018-12-16T17:50:25.290Z,15.07
2018-12-16T17:52:53.755Z,15.83
2018-12-16T17:55:22.154Z,16.07
2018-12-16T17:57:50.576Z,15.23
2018-12-16T18:00:19.350Z,15.87
2018-12-16T18:02:47.802Z,15.97
2018-12-16T18:05:16.202Z,15.47
2018-12-16T18:07:44.665Z,16.00
2018-12-16T18:10:13.230Z,16.70
2018-12-16T18:12:41.665Z,16.97
2018-12-16T18:15:10.722Z,15.53
2018-12-16T18:17:39.124Z,16.53
2018-12-16T18:20:08.896Z,16.13
2018-12-16T18:22:37.305Z,15.10
2018-12-16T18:25:06.185Z,15.33
2018-12-16T18:27:34.637Z,16.03
2018-12-16T18:30:04.707Z,16.60
2018-12-16T18:32:33.116Z,16.03
2018-12-16T18:35:01.542Z,16.23
2018-12-16T18:37:29.927Z,16.87
2018-12-16T18:39:58.378Z,18.33
2018-12-16T18:42:26.777Z,18.00
2018-12-16T18:44:55.237Z,17.33
2018-12-16T18:47:23.710Z,16.87
2018-12-16T18:49:52.159Z,16.47
2018-12-16T18:52:20.550Z,16.30
2018-12-16T18:54:48.966Z,15.73
2018-12-16T18:57:17.368Z,16.03
2018-12-16T18:59:45.825Z,15.07
2018-12-16T19:02:14.299Z,15.97
2018-12-16T19:04:42.727Z,16.77
2018-12-16T19:07:11.156Z,15.90
2018-12-16T19:09:39.583Z,16.67
2018-12-16T19:12:08.024Z,16.20
2018-12-16T19:14:36.723Z,16.10
2018-12-16T19:17:05.199Z,15.47
2018-12-16T19:19:33.673Z,16.30
2018-12-16T19:22:02.083Z,14.73
2018-12-16T19:24:30.573Z,17.00
2018-12-16T19:26:59.115Z,16.33
2018-12-16T19:29:27.553Z,15.43
2018-12-16T19:31:55.967Z,16.23
2018-12-16T19:34:24.397Z,16.10
2018-12-16T19:36:52.814Z,14.70
2018-12-16T19:39:21.509Z,14.43
2018-12-16T19:41:50.016Z,15.00
2018-12-16T19:44:18.416Z,15.60
2018-12-16T19:46:46.855Z,14.97
2018-12-16T19:49:15.341Z,14.77
2018-12-16T19:51:43.828Z,14.70
2018-12-16T19:54:12.247Z,15.83
2018-12-16T19:56:40.651Z,15.27
2018-12-16T19:59:09.064Z,15.17
2018-12-16T20:01:37.541Z,14.87
2018-12-16T20:04:11.482Z,15.17
2018-12-16T20:06:43.789Z,14.67
2018-12-16T20:09:12.342Z,14.53
2018-12-16T20:11:40.788Z,14.53
2018-12-16T20:14:09.275Z,14.43
2018-12-16T20:16:37.709Z,14.03
2018-12-16T20:19:06.126Z,14.90
2018-12-16T20:21:36.300Z,14.37
2018-12-16T20:24:04.716Z,15.13
2018-12-16T20:26:33.100Z,13.50
2018-12-16T20:29:01.602Z,15.03
2018-12-16T20:31:30.008Z,14.77
2018-12-16T20:33:58.426Z,15.03
2018-12-16T20:36:26.844Z,14.63
2018-12-16T20:38:55.299Z,15.37
2018-12-16T20:41:23.781Z,14.43
2018-12-16T20:43:52.454Z,15.53
2018-12-16T20:46:21.170Z,16.40
2018-12-16T20:48:49.580Z,15.80
2018-12-16T20:51:17.983Z,14.90
2018-12-16T20:53:46.380Z,14.83
2018-12-16T20:56:14.806Z,16.70
2018-12-16T20:58:43.213Z,15.13
2018-12-16T21:01:11.726Z,15.23
2018-12-16T21:03:40.179Z,14.53
2018-12-16T21:06:08.583Z,15.10
2018-12-16T21:08:36.989Z,16.00
2018-12-16T21:11:10.813Z,14.97
2018-12-16T21:13:44.515Z,14.87
2018-12-16T21:16:18.480Z,15.70
2018-12-16T21:18:47.268Z,15.60
2018-12-16T21:21:15.947Z,15.03
2018-12-16T21:23:44.361Z,15.00
2018-12-16T21:26:12.752Z,16.03
2018-12-16T21:28:41.159Z,16.00
2018-12-16T21:31:09.619Z,15.43
2018-12-16T21:33:38.085Z,14.90
2018-12-16T21:36:06.464Z,15.37
2018-12-16T21:38:34.867Z,16.03
2018-12-16T21:41:03.271Z,15.30
2018-12-16T21:43:31.684Z,14.93
2018-12-16T21:46:00.093Z,15.57
2018-12-16T21:48:28.525Z,15.97
2018-12-16T21:50:57.832Z,15.53
2018-12-16T21:53:26.272Z,14.63
2018-12-16T21:55:54.665Z,15.43
2018-12-16T21:58:23.711Z,15.60
2018-12-16T22:00:52.788Z,15.23
2018-12-16T22:03:21.225Z,15.37
2018-12-16T22:05:49.815Z,16.30
2018-12-16T22:08:18.329Z,15.17
2018-12-16T22:10:46.719Z,15.90
2018-12-16T22:13:15.168Z,15.70
2018-12-16T22:15:43.693Z,15.43
2018-12-16T22:18:12.361Z,16.00
2018-12-16T22:20:40.757Z,15.53
2018-12-16T22:23:09.237Z,16.13
2018-12-16T22:25:37.638Z,15.23
2018-12-16T22:28:06.056Z,14.73
2018-12-16T22:30:34.557Z,15.97
2018-12-16T22:33:03.042Z,14.93
2018-12-16T22:35:31.537Z,15.60
2018-12-16T22:37:59.954Z,14.77
2018-12-16T22:40:28.460Z,15.93
2018-12-16T22:42:56.868Z,15.87
2018-12-16T22:45:25.277Z,14.90
2018-12-16T22:47:53.729Z,15.20
2018-12-16T22:50:22.134Z,16.07
2018-12-16T22:52:50.532Z,15.90
2018-12-16T22:55:18.938Z,15.77
2018-12-16T22:57:47.385Z,15.47
2018-12-16T23:00:16.806Z,14.63
2018-12-16T23:02:45.199Z,15.67
2018-12-16T23:05:13.633Z,16.30
2018-12-16T23:07:42.009Z,15.03
2018-12-16T23:10:10.546Z,15.87
2018-12-16T23:12:39.023Z,15.37
2018-12-16T23:15:07.528Z,15.80
2018-12-16T23:17:35.924Z,14.80
2018-12-16T23:20:10.560Z,14.83
2018-12-16T23:22:38.958Z,15.47
2018-12-16T23:25:07.568Z,14.93
2018-12-16T23:27:36.094Z,16.33
2018-12-16T23:30:06.316Z,15.30
2018-12-16T23:32:34.722Z,15.57
2018-12-16T23:35:03.151Z,15.00
2018-12-16T23:37:31.634Z,15.47
2018-12-16T23:40:00.046Z,14.53
2018-12-16T23:42:28.449Z,14.97
2018-12-16T23:44:56.973Z,15.57
2018-12-16T23:47:25.364Z,15.97
2018-12-16T23:49:53.836Z,14.63
2018-12-16T23:52:22.338Z,15.07
2018-12-16T23:54:50.728Z,16.43
2018-12-16T23:57:19.142Z,14.90
2018-12-16T23:59:47.630Z,14.67
